Mugla, Turkey
Current Conditions -  °F | °C
As of 10:20 AM on Saturday 01 Nov 2014 (Local Time) from LTFE Reporting Station
Clear Clear  
Wind Chill: 66°   Ceiling: Unl
Heat Index: 66°   Visibility: 6mi
Dew Point: 45°   Wind: 10mph
Humidity: 46%   Direction: 50°NE
Pressure: 29.97"   Gusts: NA
Location:  37.22°N, 28.36°E
Report Text: LTFE 010820Z 05009KT 020V080 CAVOK 19/07 Q1015 NOSIG
Loading
Personal Weather Stations






























Interactive Weather Map New forecast layout! Learn more

10-Day Weather Forecast

Advertisements
Track Severe Weather on mobile